createdAt,value
2022-10-18T00:01:08.102Z,29.50
2022-10-18T00:06:09.401Z,29.10
2022-10-18T00:08:39.045Z,31.40
2022-10-18T00:11:07.933Z,23.60
2022-10-18T00:13:36.213Z,29.90
2022-10-18T00:16:09.961Z,23.30
2022-10-18T00:18:37.995Z,24.30
2022-10-18T00:21:11.806Z,24.50
2022-10-18T00:23:40.288Z,22.70
2022-10-18T00:26:15.421Z,25.70
2022-10-18T00:28:44.259Z,30.90
2022-10-18T00:31:16.982Z,28.40
2022-10-18T00:33:47.173Z,23.90
2022-10-18T00:36:15.969Z,31.10
2022-10-18T00:38:44.910Z,25.00
2022-10-18T00:41:17.010Z,38.30
2022-10-18T00:44:26.700Z,34.10
2022-10-18T00:47:05.090Z,25.00
2022-10-18T00:49:37.570Z,28.10
2022-10-18T00:52:35.750Z,21.20
2022-10-18T00:55:05.979Z,34.20
2022-10-18T00:57:34.424Z,28.80
2022-10-18T01:00:04.335Z,21.40
2022-10-18T01:02:32.901Z,32.60
2022-10-18T01:05:01.049Z,25.30
2022-10-18T01:07:57.023Z,25.40
2022-10-18T01:10:49.845Z,25.10
2022-10-18T01:13:39.564Z,23.40
2022-10-18T01:16:31.254Z,21.80
2022-10-18T01:19:27.305Z,26.10
2022-10-18T01:22:08.165Z,18.60
2022-10-18T01:24:52.854Z,27.90
2022-10-18T01:27:36.246Z,26.80
2022-10-18T01:30:15.267Z,26.40
2022-10-18T01:32:49.086Z,20.20
2022-10-18T01:35:33.032Z,24.20
2022-10-18T01:38:06.925Z,26.40
2022-10-18T01:40:37.042Z,22.60
2022-10-18T01:45:35.253Z,25.30
2022-10-18T01:48:03.934Z,33.80
2022-10-18T01:50:34.202Z,19.40
2022-10-18T01:53:02.552Z,26.20
2022-10-18T01:55:43.548Z,21.00
2022-10-18T01:58:40.416Z,23.60
2022-10-18T02:01:43.735Z,22.20
2022-10-18T02:04:33.799Z,18.50
2022-10-18T02:07:55.448Z,25.70
2022-10-18T02:11:00.005Z,24.50
2022-10-18T02:13:34.857Z,21.80
2022-10-18T02:16:09.978Z,25.80
2022-10-18T02:18:42.551Z,20.70
2022-10-18T02:21:15.948Z,22.70
2022-10-18T02:23:46.274Z,24.60
2022-10-18T02:26:16.107Z,25.40
2022-10-18T02:28:45.908Z,28.90
2022-10-18T02:31:26.467Z,23.70
2022-10-18T02:33:58.984Z,26.40
2022-10-18T02:36:39.089Z,27.00
2022-10-18T02:39:14.444Z,21.90
2022-10-18T02:41:43.025Z,22.80
2022-10-18T02:44:11.510Z,23.30
2022-10-18T02:46:40.613Z,32.10
2022-10-18T02:49:08.784Z,25.70
2022-10-18T02:51:36.728Z,21.10
2022-10-18T02:54:05.550Z,18.10
2022-10-18T02:56:33.631Z,16.20
2022-10-18T02:59:01.907Z,23.90
2022-10-18T03:01:29.919Z,20.90
2022-10-18T03:03:57.955Z,23.70
2022-10-18T03:06:26.047Z,15.80
2022-10-18T03:08:54.355Z,22.10
2022-10-18T03:11:22.599Z,16.60
2022-10-18T03:13:50.467Z,22.10
2022-10-18T03:16:18.953Z,16.70
2022-10-18T03:18:46.768Z,17.30
2022-10-18T03:21:14.798Z,13.40
2022-10-18T03:23:42.787Z,23.60
2022-10-18T03:26:10.849Z,18.90
2022-10-18T03:28:38.888Z,16.30
2022-10-18T03:31:07.069Z,15.90
2022-10-18T03:33:35.382Z,18.50
2022-10-18T03:36:03.353Z,21.70
2022-10-18T03:38:31.848Z,23.60
2022-10-18T03:40:59.817Z,14.50
2022-10-18T03:43:27.991Z,22.30
2022-10-18T03:45:56.309Z,18.90
2022-10-18T03:48:24.294Z,18.90
2022-10-18T03:50:52.222Z,21.80
2022-10-18T03:53:20.295Z,22.00
2022-10-18T03:55:52.871Z,21.60
2022-10-18T03:58:21.584Z,26.80
2022-10-18T04:00:51.484Z,26.90
2022-10-18T04:03:21.198Z,19.40
2022-10-18T04:05:49.682Z,16.60
2022-10-18T04:08:18.575Z,19.60
2022-10-18T04:10:46.667Z,16.10
2022-10-18T04:13:14.876Z,19.50
2022-10-18T04:15:43.454Z,16.30
2022-10-18T04:18:11.389Z,21.20
2022-10-18T04:20:39.387Z,16.00
2022-10-18T04:23:07.236Z,24.00
2022-10-18T04:25:35.289Z,14.40
2022-10-18T04:28:03.387Z,20.80
2022-10-18T04:30:31.307Z,15.80
2022-10-18T04:32:59.543Z,19.20
2022-10-18T04:35:27.822Z,24.80
2022-10-18T04:37:55.894Z,21.50
2022-10-18T04:40:23.971Z,19.70
2022-10-18T04:42:51.947Z,23.60
2022-10-18T04:45:19.921Z,27.50
2022-10-18T04:47:47.901Z,28.70
2022-10-18T04:50:15.898Z,26.10
2022-10-18T04:52:44.579Z,24.30
2022-10-18T04:55:12.433Z,19.70
2022-10-18T04:57:40.709Z,26.80
2022-10-18T05:00:09.144Z,27.60
2022-10-18T05:02:37.376Z,23.70
2022-10-18T05:05:08.114Z,19.80
2022-10-18T05:07:38.435Z,20.50
2022-10-18T05:10:07.843Z,25.40
2022-10-18T05:12:36.121Z,22.20
2022-10-18T05:15:04.816Z,28.80
2022-10-18T05:17:32.858Z,28.30
2022-10-18T05:20:00.926Z,24.20
2022-10-18T05:22:29.389Z,27.90
2022-10-18T05:24:57.935Z,17.90
2022-10-18T05:27:25.833Z,20.00
2022-10-18T05:29:53.643Z,19.70
2022-10-18T05:32:22.029Z,22.60
2022-10-18T05:34:50.350Z,22.10
2022-10-18T05:37:18.454Z,25.70
2022-10-18T05:39:46.401Z,23.80
2022-10-18T05:42:14.374Z,30.60
2022-10-18T05:44:42.886Z,21.40
2022-10-18T05:47:11.134Z,19.10
2022-10-18T05:49:39.191Z,22.10
2022-10-18T05:52:07.064Z,26.40
2022-10-18T05:54:35.114Z,23.70
2022-10-18T05:57:02.990Z,26.50
2022-10-18T05:59:30.952Z,25.60
2022-10-18T06:01:59.142Z,23.60
2022-10-18T06:04:27.150Z,19.30
2022-10-18T06:06:55.261Z,22.70
2022-10-18T06:09:23.426Z,24.20
2022-10-18T06:11:51.378Z,22.50
2022-10-18T06:14:19.252Z,20.90
2022-10-18T06:16:47.224Z,19.30
2022-10-18T06:19:15.613Z,22.20
2022-10-18T06:21:44.555Z,24.50
2022-10-18T06:24:12.510Z,27.10
2022-10-18T06:26:40.449Z,34.50
2022-10-18T06:29:08.527Z,18.40
2022-10-18T06:31:37.520Z,24.20
2022-10-18T06:34:05.682Z,21.10
2022-10-18T06:36:33.676Z,22.20
2022-10-18T06:39:01.641Z,29.60
2022-10-18T06:41:29.624Z,25.30
2022-10-18T06:43:57.597Z,22.50
2022-10-18T06:46:26.493Z,14.50
2022-10-18T06:48:54.677Z,30.40
2022-10-18T06:51:22.852Z,18.20
2022-10-18T06:54:05.870Z,24.30
2022-10-18T06:56:39.396Z,24.60
2022-10-18T06:59:07.443Z,20.70
2022-10-18T07:01:35.679Z,24.40
2022-10-18T07:04:04.002Z,27.80
2022-10-18T07:06:32.399Z,24.20
2022-10-18T07:09:00.264Z,19.50
2022-10-18T07:11:28.331Z,15.40
2022-10-18T07:14:00.600Z,20.40
2022-10-18T07:16:29.290Z,29.60
2022-10-18T07:18:57.571Z,26.80
2022-10-18T07:21:26.568Z,27.00
2022-10-18T07:23:56.941Z,23.40
2022-10-18T07:26:28.359Z,18.10
2022-10-18T07:29:04.764Z,25.90
2022-10-18T07:31:35.774Z,29.40
2022-10-18T07:34:05.353Z,23.30
2022-10-18T07:36:34.162Z,23.60
2022-10-18T07:39:02.116Z,24.00
2022-10-18T07:41:30.313Z,17.30
2022-10-18T07:43:58.193Z,26.30
2022-10-18T07:46:26.508Z,26.20
2022-10-18T07:48:55.321Z,31.60
2022-10-18T07:51:23.714Z,21.60
2022-10-18T07:53:52.083Z,26.70
2022-10-18T07:56:23.568Z,29.50
2022-10-18T07:58:54.001Z,20.20
2022-10-18T08:01:23.665Z,28.50
2022-10-18T08:03:52.701Z,29.80
2022-10-18T08:06:22.827Z,21.90
2022-10-18T08:08:50.793Z,27.30
2022-10-18T08:11:22.227Z,27.70
2022-10-18T08:13:51.674Z,23.20
2022-10-18T08:16:22.903Z,31.50
2022-10-18T08:18:51.534Z,23.80
2022-10-18T08:21:20.929Z,24.70
2022-10-18T08:23:49.196Z,31.60
2022-10-18T08:26:20.048Z,26.50
2022-10-18T08:28:58.171Z,22.70
2022-10-18T08:31:37.867Z,30.60
2022-10-18T08:34:05.846Z,30.40
2022-10-18T08:36:33.795Z,17.00
2022-10-18T08:39:01.710Z,19.20
2022-10-18T08:41:55.765Z,20.70
2022-10-18T08:44:25.433Z,29.00
2022-10-18T08:47:07.127Z,24.60
2022-10-18T08:49:47.743Z,20.80
2022-10-18T08:52:34.739Z,23.60
2022-10-18T08:55:09.162Z,34.60
2022-10-18T08:57:37.034Z,23.80
2022-10-18T09:00:18.667Z,28.50
2022-10-18T09:03:05.368Z,26.50
2022-10-18T09:05:45.492Z,26.60
2022-10-18T09:08:54.869Z,23.60
2022-10-18T09:11:46.905Z,21.10
2022-10-18T09:14:23.842Z,16.70
2022-10-18T09:16:55.014Z,25.50
2022-10-18T09:19:41.532Z,22.00
2022-10-18T09:22:21.081Z,23.10
2022-10-18T09:24:57.183Z,22.80
2022-10-18T09:27:42.194Z,30.00
2022-10-18T09:30:25.522Z,17.90
2022-10-18T09:33:05.464Z,24.40
2022-10-18T09:36:05.083Z,28.00
2022-10-18T09:38:41.359Z,18.70
2022-10-18T09:41:20.687Z,18.60
2022-10-18T09:43:59.825Z,23.20
2022-10-18T09:46:39.197Z,22.30
2022-10-18T09:49:19.068Z,14.30
2022-10-18T09:51:49.277Z,19.80
2022-10-18T09:54:23.592Z,20.70
2022-10-18T09:57:02.424Z,17.60
2022-10-18T09:59:50.874Z,14.30
2022-10-18T10:02:21.912Z,24.30
2022-10-18T10:04:51.134Z,23.40
2022-10-18T10:07:21.921Z,14.10
2022-10-18T10:10:14.620Z,25.20
2022-10-18T10:12:42.901Z,19.00
2022-10-18T10:15:19.344Z,22.90
2022-10-18T10:18:02.416Z,23.10
2022-10-18T10:20:37.432Z,23.50
2022-10-18T10:23:08.931Z,24.20
2022-10-18T10:25:38.235Z,23.60
2022-10-18T10:28:20.605Z,23.10
2022-10-18T10:30:48.616Z,19.70
2022-10-18T10:33:57.691Z,26.50
2022-10-18T10:36:25.645Z,22.30
2022-10-18T10:39:04.766Z,21.70
2022-10-18T10:41:33.613Z,24.00
2022-10-18T10:44:05.015Z,24.40
2022-10-18T10:46:36.898Z,16.40
2022-10-18T10:49:35.062Z,18.10
2022-10-18T10:52:08.849Z,18.00
2022-10-18T10:54:52.492Z,14.90
2022-10-18T10:57:26.196Z,18.90
2022-10-18T10:59:56.360Z,26.30
2022-10-18T11:02:33.512Z,33.30
2022-10-18T11:05:25.007Z,23.00
2022-10-18T11:07:57.013Z,26.10
2022-10-18T11:10:30.901Z,31.10
2022-10-18T11:13:03.629Z,27.40
2022-10-18T11:15:45.229Z,23.20
2022-10-18T11:18:27.819Z,24.40
2022-10-18T11:20:58.454Z,21.20
2022-10-18T11:23:33.179Z,21.50
2022-10-18T11:26:32.409Z,31.80
2022-10-18T11:29:30.079Z,25.30
2022-10-18T11:32:26.780Z,20.90
2022-10-18T11:35:16.655Z,25.80
2022-10-18T11:37:47.529Z,22.30
2022-10-18T11:40:27.471Z,20.40
2022-10-18T11:43:50.540Z,20.30
2022-10-18T11:46:22.909Z,18.60
2022-10-18T11:49:02.920Z,17.50
2022-10-18T11:52:07.984Z,18.30
2022-10-18T11:54:43.845Z,23.90
2022-10-18T11:57:37.743Z,21.90
2022-10-18T12:00:23.751Z,27.60
2022-10-18T12:03:18.680Z,23.50
2022-10-18T12:05:48.752Z,29.60
2022-10-18T12:08:23.882Z,19.30
2022-10-18T12:11:10.225Z,18.00
2022-10-18T12:13:55.447Z,22.90
2022-10-18T12:16:49.578Z,26.40
2022-10-18T12:19:28.872Z,27.00
2022-10-18T12:22:02.678Z,21.80
2022-10-18T12:24:33.116Z,24.20
2022-10-18T12:27:02.304Z,15.20
2022-10-18T12:29:40.259Z,23.80
2022-10-18T12:32:13.163Z,33.90
2022-10-18T12:34:49.770Z,28.80
2022-10-18T12:37:20.635Z,31.70
2022-10-18T12:40:11.423Z,28.10
2022-10-18T12:42:48.100Z,26.60
2022-10-18T12:45:42.592Z,22.60
2022-10-18T12:48:29.040Z,35.30
2022-10-18T12:51:17.081Z,29.20
2022-10-18T12:53:49.182Z,33.30
2022-10-18T12:56:39.721Z,40.90
2022-10-18T12:59:16.874Z,27.20
2022-10-18T13:01:50.758Z,31.80
2022-10-18T13:04:28.117Z,35.40
2022-10-18T13:06:59.659Z,41.60
2022-10-18T13:09:28.763Z,43.30
2022-10-18T13:12:16.545Z,39.30
2022-10-18T13:15:13.376Z,37.80
2022-10-18T13:17:55.217Z,40.30
2022-10-18T13:20:40.861Z,29.60
2022-10-18T13:23:09.203Z,33.70
2022-10-18T13:25:58.639Z,29.80
2022-10-18T13:28:26.898Z,33.00
2022-10-18T13:31:09.880Z,39.10
2022-10-18T13:33:40.767Z,30.20
2022-10-18T13:36:22.663Z,37.30
2022-10-18T13:38:54.141Z,38.70
2022-10-18T13:41:29.180Z,34.30
2022-10-18T13:44:02.648Z,32.80
2022-10-18T13:46:33.488Z,32.90
2022-10-18T13:49:40.056Z,37.50
2022-10-18T13:52:54.750Z,34.00
2022-10-18T13:55:45.363Z,32.20
2022-10-18T13:58:32.094Z,38.70
2022-10-18T14:03:58.099Z,31.90
2022-10-18T14:06:36.325Z,36.80
2022-10-18T14:12:21.782Z,36.80
2022-10-18T14:15:03.533Z,33.40
2022-10-18T14:17:34.532Z,32.20
2022-10-18T14:20:20.738Z,44.80
2022-10-18T14:23:03.194Z,34.80
2022-10-18T14:25:35.157Z,36.50
2022-10-18T14:28:27.320Z,33.40
2022-10-18T14:31:05.553Z,33.50
2022-10-18T14:33:44.319Z,31.60
2022-10-18T14:36:15.669Z,25.50
2022-10-18T14:39:00.864Z,33.20
2022-10-18T14:41:30.955Z,36.60
2022-10-18T14:44:32.169Z,26.60
2022-10-18T14:47:22.527Z,33.90
2022-10-18T14:49:51.601Z,33.40
2022-10-18T14:52:26.089Z,43.60
2022-10-18T14:54:56.361Z,33.40
2022-10-18T14:57:42.453Z,43.00
2022-10-18T15:02:51.858Z,30.90
2022-10-18T15:05:23.722Z,30.70
2022-10-18T15:07:53.117Z,32.10
2022-10-18T15:10:33.688Z,33.30
2022-10-18T15:13:09.736Z,40.00
2022-10-18T15:15:39.370Z,30.90
2022-10-18T15:18:08.207Z,37.80
2022-10-18T15:20:37.812Z,41.30
2022-10-18T15:23:29.051Z,31.80
2022-10-18T15:26:04.622Z,34.70
2022-10-18T15:28:34.424Z,32.70
2022-10-18T15:31:03.334Z,31.90
2022-10-18T15:33:33.054Z,34.20
2022-10-18T15:36:17.963Z,38.50
2022-10-18T15:38:49.108Z,30.10
2022-10-18T15:41:57.986Z,40.60
2022-10-18T15:47:11.940Z,45.30
2022-10-18T15:49:46.473Z,37.00
2022-10-18T15:52:38.209Z,37.70
2022-10-18T15:55:32.068Z,32.70
2022-10-18T15:58:11.306Z,34.60
2022-10-18T16:00:39.293Z,34.20
2022-10-18T16:03:08.966Z,38.30
2022-10-18T16:05:38.232Z,42.80
2022-10-18T16:08:06.383Z,40.50
2022-10-18T16:10:34.366Z,41.20
2022-10-18T16:13:02.524Z,46.40
2022-10-18T16:15:30.583Z,39.70
2022-10-18T16:17:58.654Z,34.30
2022-10-18T16:20:26.609Z,39.70
2022-10-18T16:22:54.512Z,42.00
2022-10-18T16:25:22.341Z,45.60
2022-10-18T16:27:50.590Z,42.30
2022-10-18T16:30:21.034Z,46.00
2022-10-18T16:32:48.964Z,37.60
2022-10-18T16:35:16.979Z,41.60
2022-10-18T16:37:44.772Z,42.60
2022-10-18T16:40:25.214Z,41.00
2022-10-18T16:42:53.057Z,41.40
2022-10-18T16:45:21.053Z,33.90
2022-10-18T16:47:48.983Z,33.10
2022-10-18T16:50:19.803Z,45.70
2022-10-18T16:52:47.803Z,46.10
2022-10-18T16:55:15.977Z,44.30
2022-10-18T16:57:43.897Z,32.80
2022-10-18T17:00:22.940Z,36.40
2022-10-18T17:02:51.900Z,40.10
2022-10-18T17:05:20.580Z,45.30
2022-10-18T17:07:49.271Z,35.30
2022-10-18T17:10:21.433Z,47.00
2022-10-18T17:12:49.348Z,38.40
2022-10-18T17:15:18.477Z,45.60
2022-10-18T17:17:47.385Z,43.80
2022-10-18T17:20:24.427Z,54.60
2022-10-18T17:22:54.497Z,44.70
2022-10-18T17:25:22.463Z,46.20
2022-10-18T17:27:50.484Z,46.90
2022-10-18T17:30:18.592Z,59.60
2022-10-18T17:32:46.444Z,51.10
2022-10-18T17:35:14.369Z,52.90
2022-10-18T17:37:45.316Z,47.50
2022-10-18T17:40:14.056Z,48.90
2022-10-18T17:42:42.533Z,55.50
2022-10-18T17:45:10.657Z,46.70
2022-10-18T17:47:38.523Z,49.40
2022-10-18T17:50:06.919Z,44.30
2022-10-18T17:52:34.833Z,50.80
2022-10-18T17:55:02.739Z,56.40
2022-10-18T17:57:30.933Z,48.60
2022-10-18T17:59:59.052Z,46.50
2022-10-18T18:02:26.886Z,41.80
2022-10-18T18:04:55.127Z,45.70
2022-10-18T18:07:23.000Z,38.80
2022-10-18T18:09:50.897Z,52.30
2022-10-18T18:12:18.915Z,50.00
2022-10-18T18:14:47.254Z,45.90
2022-10-18T18:17:17.017Z,35.50
2022-10-18T18:19:49.497Z,48.00
2022-10-18T18:22:17.446Z,49.80
2022-10-18T18:24:45.401Z,42.30
2022-10-18T18:27:13.325Z,45.40
2022-10-18T18:29:41.157Z,37.80
2022-10-18T18:32:09.390Z,40.30
2022-10-18T18:34:37.398Z,44.00
2022-10-18T18:37:05.271Z,41.00
2022-10-18T18:39:33.186Z,47.80
2022-10-18T18:42:01.873Z,41.40
2022-10-18T18:44:29.979Z,44.90
2022-10-18T18:46:58.280Z,40.20
2022-10-18T18:49:26.447Z,39.90
2022-10-18T18:51:54.607Z,60.00
2022-10-18T18:54:22.718Z,41.60
2022-10-18T18:56:51.452Z,46.20
2022-10-18T18:59:19.242Z,51.30
2022-10-18T19:01:47.580Z,46.30
2022-10-18T19:04:20.453Z,43.60
2022-10-18T19:06:48.290Z,39.90
2022-10-18T19:09:18.078Z,43.50
2022-10-18T19:11:48.238Z,45.60
2022-10-18T19:14:16.618Z,44.60
2022-10-18T19:16:53.745Z,47.80
2022-10-18T19:19:24.208Z,44.90
2022-10-18T19:21:54.953Z,37.60
2022-10-18T19:24:24.730Z,47.60
2022-10-18T19:26:55.591Z,48.30
2022-10-18T19:29:25.007Z,47.90
2022-10-18T19:31:55.825Z,37.10
2022-10-18T19:34:25.750Z,44.00
2022-10-18T19:36:54.278Z,40.00
2022-10-18T19:39:26.605Z,44.50
2022-10-18T19:41:56.422Z,41.60
2022-10-18T19:44:28.235Z,49.60
2022-10-18T19:46:56.260Z,46.60
2022-10-18T19:49:24.192Z,40.70
2022-10-18T19:51:52.616Z,51.00
2022-10-18T19:54:21.101Z,43.00
2022-10-18T19:56:49.379Z,35.50
2022-10-18T19:59:17.766Z,43.90
2022-10-18T20:01:46.191Z,37.80
2022-10-18T20:04:15.079Z,43.50
2022-10-18T20:06:43.371Z,41.10
2022-10-18T20:09:16.097Z,45.70
2022-10-18T20:11:47.706Z,41.10
2022-10-18T20:14:15.833Z,44.60
2022-10-18T20:16:43.710Z,41.70
2022-10-18T20:19:11.649Z,40.00
2022-10-18T20:21:39.524Z,52.90
2022-10-18T20:24:08.040Z,49.00
2022-10-18T20:26:36.525Z,48.50
2022-10-18T20:29:04.982Z,36.40
2022-10-18T20:31:34.596Z,57.50
2022-10-18T20:34:05.259Z,47.90
2022-10-18T20:36:34.008Z,47.00
2022-10-18T20:39:02.230Z,41.90
2022-10-18T20:41:33.372Z,44.20
2022-10-18T20:44:04.530Z,39.30
2022-10-18T20:46:35.524Z,52.60
2022-10-18T20:49:06.010Z,32.90
2022-10-18T20:51:35.296Z,42.50
2022-10-18T20:56:38.718Z,44.30
2022-10-18T20:59:07.426Z,47.10
2022-10-18T21:01:37.148Z,40.90
2022-10-18T21:04:08.011Z,55.20
2022-10-18T21:06:38.684Z,49.80
2022-10-18T21:09:18.279Z,47.40
2022-10-18T21:11:49.864Z,50.70
2022-10-18T21:14:20.894Z,51.10
2022-10-18T21:16:51.207Z,55.60
2022-10-18T21:19:25.278Z,48.60
2022-10-18T21:21:56.986Z,41.20
2022-10-18T21:24:25.887Z,41.80
2022-10-18T21:26:54.598Z,44.80
2022-10-18T21:29:23.603Z,36.10
2022-10-18T21:31:55.212Z,44.10
2022-10-18T21:34:23.157Z,40.20
2022-10-18T21:36:51.326Z,55.40
2022-10-18T21:39:22.116Z,45.60
2022-10-18T21:41:50.970Z,59.80
2022-10-18T21:44:18.841Z,53.00
2022-10-18T21:46:47.069Z,52.00
2022-10-18T21:49:15.562Z,52.60
2022-10-18T21:51:43.793Z,51.30
2022-10-18T21:54:14.380Z,44.90
2022-10-18T21:56:42.665Z,41.30
2022-10-18T21:59:14.345Z,48.10
2022-10-18T22:01:42.328Z,43.90
2022-10-18T22:04:22.520Z,49.30
2022-10-18T22:06:50.941Z,48.90
2022-10-18T22:09:19.677Z,46.40
2022-10-18T22:11:51.545Z,42.20
2022-10-18T22:14:20.160Z,47.30
2022-10-18T22:16:48.349Z,50.50
2022-10-18T22:19:16.327Z,51.40
2022-10-18T22:21:44.319Z,44.80
2022-10-18T22:24:12.154Z,45.70
2022-10-18T22:26:42.477Z,56.10
2022-10-18T22:29:14.643Z,57.80
2022-10-18T22:31:46.496Z,49.40
2022-10-18T22:34:20.520Z,50.90
2022-10-18T22:36:48.797Z,53.00
2022-10-18T22:39:16.784Z,54.40
2022-10-18T22:41:45.386Z,48.10
2022-10-18T22:44:15.397Z,42.30
2022-10-18T22:46:43.385Z,42.80
2022-10-18T22:49:11.833Z,46.90
2022-10-18T22:51:40.589Z,41.50
2022-10-18T22:54:09.209Z,44.80
2022-10-18T22:56:37.111Z,43.70
2022-10-18T22:59:05.125Z,40.80
2022-10-18T23:01:33.038Z,47.10
2022-10-18T23:04:01.691Z,40.30
2022-10-18T23:06:35.814Z,40.90
2022-10-18T23:09:07.245Z,50.80
2022-10-18T23:11:36.355Z,37.60
2022-10-18T23:14:06.360Z,40.00
2022-10-18T23:16:35.228Z,37.20
2022-10-18T23:19:03.813Z,39.20
2022-10-18T23:21:34.199Z,30.30
2022-10-18T23:24:02.069Z,43.30
2022-10-18T23:26:30.033Z,31.60
2022-10-18T23:28:57.964Z,36.70
2022-10-18T23:31:29.223Z,42.20
2022-10-18T23:33:59.505Z,34.90
2022-10-18T23:36:27.502Z,40.00
2022-10-18T23:38:56.201Z,38.50
2022-10-18T23:41:24.580Z,36.50
2022-10-18T23:43:52.892Z,34.40
2022-10-18T23:46:21.173Z,40.40
2022-10-18T23:48:49.688Z,47.20
2022-10-18T23:51:18.136Z,34.40
2022-10-18T23:53:46.382Z,40.20
2022-10-18T23:56:16.611Z,36.00
2022-10-18T23:58:45.563Z,34.80
